»·PEaware :: JBU123 KSAT-KELP

JBU123 :: KSAT-KELP

FLIGHT INFORMATION

Flight Status: Arrived
Operator:
JetBlue Airways
More flights by this operator :: More flights under this callsign
Pilot: Mitchell L. (19304)
Aircraft: EMBRAER EMB-170/175
(E170)
More flights by this aircraft type
Origin: KSAT San Antonio Intl
United States
Destination: KELP El Paso Intl
United States
More flights between these airports :: More routes between these airports
Route: ALISS5 FST TXSAS BEAHR3
File this flight plan on PilotEdge
Remarks:
Altitude:
(Current/Filed)
34,000ft
Speed:
(Current/Filed)
450kts
Departed: 13-Aug-18 10:56 AM
Arrived: 13-Aug-18 12:06 PM
Distance/Time
Traveled:
431nm/1:10
Distance/Time
To Go:
Arrived

Flight Plot

Page will automatically refresh every two minutes.

Flight plan parsing failed; only flown route is shown


Map Options




Map Legend


Flown Route
Filed Route
Departure Airport
Arrival Airport
Navaid (VOR, NDB)
Fix

Horizontal Profiles

Position Reports

Time Latitude Longitude Heading Altitude Ground
Speed
13-Aug-18 10:34 29.527955 -98.472226 314 815ft 0kts
13-Aug-18 10:35 29.527955 -98.472226 314 815ft 0kts
13-Aug-18 10:36 29.527955 -98.472226 314 815ft 0kts
13-Aug-18 10:37 29.527955 -98.472226 314 815ft 0kts
13-Aug-18 10:38 29.527955 -98.472226 314 815ft 0kts
13-Aug-18 10:39 29.527955 -98.472226 314 815ft 0kts
13-Aug-18 10:40 29.527955 -98.472226 314 815ft 0kts
13-Aug-18 10:41 29.527955 -98.472226 314 815ft 0kts
13-Aug-18 10:42 29.527955 -98.472226 314 815ft 0kts
13-Aug-18 10:43 29.527955 -98.472226 314 815ft 0kts
13-Aug-18 10:44 29.527955 -98.472226 314 815ft 0kts
13-Aug-18 10:45 29.527958 -98.472230 314 815ft 0kts
13-Aug-18 10:46 29.527654 -98.471869 314 815ft 2kts
13-Aug-18 10:47 29.527484 -98.471642 339 815ft 2kts
13-Aug-18 10:48 29.527895 -98.471159 39 815ft 1kts
13-Aug-18 10:49 29.527906 -98.471149 39 815ft 0kts
13-Aug-18 10:50 29.529228 -98.471111 316 815ft 15kts
13-Aug-18 10:51 29.534206 -98.476497 313 815ft 27kts
13-Aug-18 10:52 29.540059 -98.483937 310 815ft 19kts
13-Aug-18 10:53 29.541846 -98.486084 6 815ft 0kts
13-Aug-18 10:54 29.541846 -98.486084 6 815ft 0kts
13-Aug-18 10:55 29.542331 -98.485799 38 815ft 4kts
13-Aug-18 10:56 29.542216 -98.484891 135 815ft 17kts
13-Aug-18 10:57 29.518736 -98.455335 135 2603ft 166kts
13-Aug-18 10:58 29.496425 -98.406910 67 4258ft 214kts
13-Aug-18 10:59 29.544698 -98.397297 317 7390ft 220kts
13-Aug-18 11:00 29.594398 -98.449441 310 9641ft 277kts
13-Aug-18 11:01 29.655703 -98.517254 311 11832ft 340kts
13-Aug-18 11:02 29.726449 -98.593701 312 14821ft 364kts
13-Aug-18 11:03 29.796344 -98.672422 306 17699ft 375kts
13-Aug-18 11:04 29.860595 -98.765172 304 20673ft 377kts
13-Aug-18 11:05 29.925958 -98.858608 305 23113ft 383kts
13-Aug-18 11:06 29.985511 -98.942589 306 24886ft 389kts
13-Aug-18 11:07 30.061827 -99.050388 306 26564ft 404kts
13-Aug-18 11:08 30.132005 -99.150018 306 28059ft 423kts
13-Aug-18 11:09 30.206890 -99.261163 305 30028ft 446kts
13-Aug-18 11:10 30.274250 -99.380733 289 31984ft 453kts
13-Aug-18 11:11 30.303854 -99.521555 279 33456ft 442kts
13-Aug-18 11:12 30.328234 -99.660502 281 34017ft 450kts
13-Aug-18 11:13 30.356242 -99.802406 281 34128ft 453kts
13-Aug-18 11:14 30.384704 -99.943758 281 34129ft 453kts
13-Aug-18 11:15 30.412624 -100.083317 281 34127ft 453kts
13-Aug-18 11:16 30.441211 -100.227744 281 34142ft 453kts
13-Aug-18 11:17 30.469085 -100.369479 281 34154ft 453kts
13-Aug-18 11:18 30.496757 -100.510909 281 34154ft 453kts
13-Aug-18 11:19 30.524343 -100.652557 281 34154ft 453kts
13-Aug-18 11:20 30.551305 -100.792894 281 34156ft 453kts
13-Aug-18 11:21 30.578690 -100.936104 280 34142ft 451kts
13-Aug-18 11:22 30.605300 -101.075244 280 34128ft 449kts
13-Aug-18 11:23 30.632098 -101.216193 280 34127ft 449kts
13-Aug-18 11:24 30.658740 -101.357444 280 34127ft 449kts
13-Aug-18 11:25 30.685151 -101.498301 280 34126ft 449kts
13-Aug-18 11:26 30.711406 -101.639796 280 34126ft 449kts
13-Aug-18 11:27 30.737235 -101.780208 279 34129ft 449kts
13-Aug-18 11:28 30.763148 -101.921961 279 34129ft 449kts
13-Aug-18 11:29 30.789099 -102.063947 280 34125ft 449kts
13-Aug-18 11:30 30.814893 -102.205910 280 34114ft 449kts
13-Aug-18 11:31 30.840432 -102.347494 279 34109ft 449kts
13-Aug-18 11:32 30.865908 -102.489844 279 34109ft 449kts
13-Aug-18 11:33 30.889377 -102.621734 279 34108ft 448kts
13-Aug-18 11:34 30.914394 -102.763370 279 34112ft 446kts
13-Aug-18 11:35 30.938797 -102.902300 278 34112ft 444kts
13-Aug-18 11:36 30.969165 -103.035450 287 34112ft 443kts
13-Aug-18 11:37 31.016253 -103.166913 291 34110ft 439kts
13-Aug-18 11:38 31.063209 -103.297840 290 34093ft 438kts
13-Aug-18 11:39 31.107860 -103.426806 290 34072ft 438kts
13-Aug-18 11:40 31.153906 -103.557445 290 34069ft 438kts
13-Aug-18 11:41 31.199948 -103.690852 289 34075ft 438kts
13-Aug-18 11:42 31.244440 -103.822678 289 34074ft 438kts
13-Aug-18 11:43 31.289260 -103.955062 289 34073ft 438kts
13-Aug-18 11:44 31.333930 -104.087067 289 34069ft 438kts
13-Aug-18 11:45 31.378730 -104.220046 290 32569ft 432kts
13-Aug-18 11:46 31.421973 -104.349002 290 31047ft 422kts
13-Aug-18 11:47 31.458839 -104.477077 280 29527ft 412kts
13-Aug-18 11:48 31.470364 -104.608913 276 28009ft 404kts
13-Aug-18 11:49 31.483101 -104.737989 277 26506ft 396kts
13-Aug-18 11:50 31.496163 -104.864637 277 25010ft 389kts
13-Aug-18 11:51 31.508964 -104.989681 278 23506ft 386kts
13-Aug-18 11:52 31.521544 -105.114034 278 21950ft 385kts
13-Aug-18 11:53 31.533849 -105.237062 278 20244ft 376kts
13-Aug-18 11:54 31.545790 -105.357496 278 18541ft 369kts
13-Aug-18 11:55 31.557384 -105.475522 278 16941ft 362kts
13-Aug-18 11:56 31.568682 -105.591671 278 15335ft 355kts
13-Aug-18 11:57 31.579596 -105.705197 277 13764ft 348kts
13-Aug-18 11:58 31.596500 -105.814417 294 12265ft 334kts
13-Aug-18 11:59 31.640675 -105.906039 302 10802ft 310kts
13-Aug-18 12:00 31.684102 -105.990273 301 9385ft 296kts
13-Aug-18 12:01 31.724103 -106.070643 299 8030ft 266kts
13-Aug-18 12:02 31.751967 -106.144867 291 7036ft 240kts
13-Aug-18 12:03 31.775478 -106.214533 291 6042ft 219kts
13-Aug-18 12:04 31.794128 -106.275816 279 5268ft 179kts
13-Aug-18 12:05 31.799137 -106.327282 274 4460ft 147kts
13-Aug-18 12:06 31.801318 -106.373512 272 3967ft 139kts
13-Aug-18 12:07 31.800995 -106.387826 184 3943ft 10kts
13-Aug-18 12:08 31.800368 -106.388018 219 3943ft 6kts
13-Aug-18 12:09 31.799650 -106.390078 314 3943ft 9kts
13-Aug-18 12:10 31.800971 -106.392863 219 3943ft 3kts
13-Aug-18 12:11 31.800862 -106.392973 221 3943ft 0kts
13-Aug-18 12:12 31.800862 -106.392973 221 3943ft 0kts

Navigation Log

Ident Type
Flight plan parsing failed, navigation log unavailable